Time;durP1;ratioP1;P1;durP2;ratioP2;P2;SDS_P1;SDS_P2;PMS_P1;PMS_P2;Temp;Humidity;BMP_temperature;BMP_pressure;BME280_temperature;BME280_humidity;BME280_pressure;Samples;Min_cycle;Max_cycle;Signal;HPM_P1;HPM_P2
2022/08/10 00:01:18;;;;;;;2.78;1.58;;;21.00;90.30;;;;;;2075938;28;20022;-71
2022/08/10 00:02:19;;;;;;;3.83;1.77;;;20.90;91.00;;;;;;2076258;28;20097;-71
2022/08/10 00:03:19;;;;;;;5.57;1.70;;;21.00;91.60;;;;;;2074346;28;20034;-71
2022/08/10 00:04:21;;;;;;;2.22;1.50;;;21.00;92.10;;;;;;2076801;28;20040;-71
2022/08/10 00:05:23;;;;;;;4.68;2.13;;;20.90;92.30;;;;;;2076793;28;20020;-71
2022/08/10 00:06:24;;;;;;;1.70;1.60;;;20.90;92.80;;;;;;2074962;28;20022;-71
2022/08/10 00:07:25;;;;;;;2.15;1.60;;;20.90;93.10;;;;;;2073772;28;20032;-71
2022/08/10 00:08:25;;;;;;;1.30;1.20;;;20.90;93.20;;;;;;2074316;28;20105;-71
2022/08/10 00:09:26;;;;;;;4.32;1.75;;;20.90;93.20;;;;;;2073476;28;20025;-71
2022/08/10 00:10:26;;;;;;;3.88;1.50;;;20.90;93.50;;;;;;2074392;28;20050;-71
2022/08/10 00:11:27;;;;;;;2.08;1.70;;;20.90;93.30;;;;;;2077039;28;20033;-71
2022/08/10 00:12:28;;;;;;;3.05;1.60;;;20.90;93.40;;;;;;2077496;28;20036;-71
2022/08/10 00:13:28;;;;;;;2.05;1.60;;;20.90;93.90;;;;;;2075560;28;20104;-71
2022/08/10 00:14:29;;;;;;;5.53;1.80;;;20.80;94.30;;;;;;2075150;28;20026;-71
2022/08/10 00:15:29;;;;;;;4.32;1.65;;;20.80;94.50;;;;;;2073482;28;20033;-71
2022/08/10 00:16:30;;;;;;;17.80;1.67;;;20.80;94.80;;;;;;2072948;28;20656;-71
2022/08/10 00:17:31;;;;;;;4.65;1.70;;;20.80;94.70;;;;;;2073344;28;20529;-71
2022/08/10 00:18:32;;;;;;;4.45;1.60;;;20.80;95.20;;;;;;2072407;28;20098;-71
2022/08/10 00:19:32;;;;;;;3.40;1.95;;;20.80;95.10;;;;;;2076013;28;20100;-71
2022/08/10 00:20:33;;;;;;;4.32;1.48;;;20.80;95.80;;;;;;2075515;28;20059;-71
2022/08/10 00:21:33;;;;;;;2.17;1.45;;;20.80;95.70;;;;;;2066824;28;20022;-71
2022/08/10 00:22:34;;;;;;;5.32;1.50;;;20.70;96.10;;;;;;2073978;28;20022;-71
2022/08/10 00:23:36;;;;;;;2.00;1.60;;;20.80;95.80;;;;;;2075915;28;20076;-71
2022/08/10 00:24:37;;;;;;;3.05;1.55;;;20.70;96.90;;;;;;2073640;28;20022;-71
2022/08/10 00:25:37;;;;;;;4.82;1.85;;;20.70;97.00;;;;;;2073231;28;20057;-71
2022/08/10 00:26:38;;;;;;;1.63;1.50;;;20.70;96.90;;;;;;2073324;28;20049;-71
2022/08/10 00:27:38;;;;;;;1.85;1.70;;;20.70;96.70;;;;;;2073795;28;20068;-71
2022/08/10 00:28:39;;;;;;;1.52;1.40;;;20.70;97.70;;;;;;2076063;28;20078;-71
2022/08/10 00:29:39;;;;;;;2.28;1.77;;;20.70;98.20;;;;;;2075882;28;20084;-71
2022/08/10 00:30:40;;;;;;;2.72;1.70;;;20.60;98.50;;;;;;2075033;28;20032;-71
2022/08/10 00:31:41;;;;;;;2.13;1.70;;;20.60;97.40;;;;;;2076283;28;20030;-71
2022/08/10 00:32:41;;;;;;;3.80;1.77;;;20.60;98.60;;;;;;2073769;28;20501;-71
2022/08/10 00:33:42;;;;;;;2.88;1.63;;;20.60;99.20;;;;;;2073489;28;20026;-71
2022/08/10 00:34:42;;;;;;;3.42;2.08;;;20.60;98.00;;;;;;2073507;28;20458;-71
2022/08/10 00:35:43;;;;;;;2.75;1.90;;;20.60;99.00;;;;;;2073514;28;20152;-71
2022/08/10 00:36:43;;;;;;;4.50;1.67;;;20.60;99.80;;;;;;2078115;28;20465;-71
2022/08/10 00:37:44;;;;;;;1.83;1.70;;;20.50;99.90;;;;;;2075759;28;20025;-71
2022/08/10 00:38:45;;;;;;;4.43;1.83;;;20.50;99.90;;;;;;2076663;28;20488;-71
2022/08/10 00:39:45;;;;;;;2.70;1.80;;;20.60;99.90;;;;;;2075038;28;20029;-71
2022/08/10 00:40:46;;;;;;;3.67;2.20;;;20.60;99.50;;;;;;2073830;28;20021;-71
2022/08/10 00:41:46;;;;;;;2.85;1.58;;;20.50;98.90;;;;;;2073032;28;20101;-71
2022/08/10 00:42:47;;;;;;;2.03;1.80;;;20.50;99.10;;;;;;2075698;28;20025;-71
2022/08/10 00:43:48;;;;;;;4.65;2.10;;;20.50;99.60;;;;;;2074334;28;20022;-71
2022/08/10 00:44:49;;;;;;;5.15;1.90;;;20.50;99.10;;;;;;2074750;28;20125;-71
2022/08/10 00:45:50;;;;;;;3.65;2.03;;;20.50;99.90;;;;;;2074880;28;20024;-71
2022/08/10 00:46:50;;;;;;;2.42;1.85;;;20.50;99.90;;;;;;2075923;28;20048;-71
2022/08/10 00:47:51;;;;;;;1.48;1.38;;;20.50;99.80;;;;;;2075449;28;20056;-71
2022/08/10 00:48:52;;;;;;;2.47;1.73;;;20.50;99.20;;;;;;2073860;28;20034;-71
2022/08/10 00:49:52;;;;;;;3.33;1.70;;;20.50;99.20;;;;;;2073731;28;20022;-71
2022/08/10 00:50:53;;;;;;;1.80;1.67;;;20.40;98.50;;;;;;2073278;28;20023;-71
2022/08/10 00:51:54;;;;;;;2.47;1.80;;;20.40;99.90;;;;;;2073761;28;20113;-71
2022/08/10 00:52:54;;;;;;;3.65;2.28;;;20.40;99.40;;;;;;2074304;28;20057;-71
2022/08/10 00:53:55;;;;;;;1.83;1.73;;;20.40;99.90;;;;;;2076154;28;21253;-71
2022/08/10 00:54:57;;;;;;;2.63;1.90;;;20.40;99.90;;;;;;2075190;28;20033;-71
2022/08/10 00:55:58;;;;;;;2.72;1.77;;;20.40;99.90;;;;;;2075280;28;20047;-71
2022/08/10 00:56:59;;;;;;;2.85;1.90;;;20.40;99.90;;;;;;2074623;28;20040;-71
2022/08/10 00:58:00;;;;;;;5.18;2.38;;;20.40;99.60;;;;;;2074333;28;20049;-71
2022/08/10 00:59:01;;;;;;;4.53;2.38;;;20.40;99.90;;;;;;2073178;28;20026;-71
2022/08/10 01:00:04;;;;;;;1.98;1.60;;;20.40;99.90;;;;;;2074531;28;20022;-71
2022/08/10 01:01:05;;;;;;;2.13;1.45;;;20.40;99.90;;;;;;2070926;28;20018;-71
2022/08/10 01:02:05;;;;;;;3.58;2.10;;;20.40;98.80;;;;;;2076791;28;20025;-71
2022/08/10 01:03:06;;;;;;;4.85;2.30;;;20.30;99.90;;;;;;2075144;28;20021;-71
2022/08/10 01:04:07;;;;;;;3.30;2.10;;;20.30;99.90;;;;;;2076169;28;20073;-71
2022/08/10 01:05:10;;;;;;;2.80;2.00;;;20.30;99.90;;;;;;2073023;28;20102;-71
2022/08/10 01:06:43;;;;;;;4.15;1.77;;;20.30;99.90;;;;;;2071700;28;20028;-71
2022/08/10 01:08:17;;;;;;;2.80;1.90;;;20.30;99.90;;;;;;2075509;28;20524;-71
2022/08/10 01:09:54;;;;;;;2.63;1.90;;;20.20;99.90;;;;;;2073865;28;20034;-71
2022/08/10 01:11:07;;;;;;;2.83;2.00;;;20.20;99.90;;;;;;2062053;28;20501;-71
2022/08/10 01:12:40;;;;;;;2.92;1.70;;;20.20;99.90;;;;;;2075255;28;20500;-71
2022/08/10 01:13:53;;;;;;;4.30;1.90;;;20.20;99.90;;;;;;2073257;28;20026;-71
2022/08/10 01:15:20;;;;;;;1.95;1.60;;;20.10;99.90;;;;;;2073928;28;20022;-71
2022/08/10 01:16:44;;;;;;;6.95;2.53;;;20.10;99.90;;;;;;2073032;28;20024;-71
2022/08/10 01:18:10;;;;;;;3.75;2.17;;;20.10;99.90;;;;;;2074880;28;20100;-71
2022/08/10 01:19:42;;;;;;;3.15;2.40;;;20.00;99.90;;;;;;2077755;28;20033;-71
2022/08/10 01:21:27;;;;;;;6.18;2.40;;;20.00;99.90;;;;;;2067801;28;20048;-71
2022/08/10 01:22:36;;;;;;;4.60;1.92;;;19.90;99.90;;;;;;2058289;28;20067;-71
2022/08/10 01:23:54;;;;;;;9.15;2.97;;;19.90;99.90;;;;;;2073903;28;20020;-71
2022/08/10 01:25:16;;;;;;;5.22;2.50;;;19.90;99.90;;;;;;2073319;28;20033;-71
2022/08/10 01:26:41;;;;;;;2.72;2.45;;;19.90;99.90;;;;;;2073043;28;20797;-71
2022/08/10 01:28:06;;;;;;;4.38;2.40;;;19.90;99.90;;;;;;2074859;28;20090;-71
2022/08/10 01:29:29;;;;;;;5.35;2.38;;;19.80;99.90;;;;;;2074709;28;20041;-71
2022/08/10 01:30:32;;;;;;;6.45;2.75;;;19.80;99.90;;;;;;2073314;28;20088;-71
2022/08/10 01:31:39;;;;;;;3.03;2.42;;;19.80;99.90;;;;;;2072945;28;20026;-71
2022/08/10 01:32:50;;;;;;;4.18;2.35;;;19.80;99.90;;;;;;2073284;28;20030;-71
2022/08/10 01:34:01;;;;;;;8.82;2.83;;;19.80;99.90;;;;;;2088705;28;20066;-71
2022/08/10 01:35:17;;;;;;;2.35;2.20;;;19.80;99.90;;;;;;2087546;28;20017;-71
2022/08/10 01:36:23;;;;;;;4.35;2.60;;;19.80;99.90;;;;;;2070918;28;20136;-71
2022/08/10 01:37:30;;;;;;;5.47;2.72;;;19.80;99.90;;;;;;2069720;28;20213;-71
2022/08/10 01:38:34;;;;;;;5.68;2.53;;;19.70;99.90;;;;;;2075993;28;20499;-71
2022/08/10 01:39:43;;;;;;;4.50;2.42;;;19.70;99.90;;;;;;2073838;28;20474;-71
2022/08/10 01:40:50;;;;;;;3.43;2.40;;;19.70;99.90;;;;;;2072840;28;20104;-71
2022/08/10 01:41:56;;;;;;;4.40;2.30;;;19.70;99.90;;;;;;2072966;28;20296;-71
2022/08/10 01:43:01;;;;;;;6.68;2.40;;;19.70;99.90;;;;;;2072931;28;20466;-71
2022/08/10 01:44:09;;;;;;;3.03;2.20;;;19.70;99.90;;;;;;2074947;28;20434;-71
2022/08/10 01:45:13;;;;;;;2.92;2.10;;;19.70;99.90;;;;;;2071912;28;20029;-71
2022/08/10 01:46:16;;;;;;;5.85;2.88;;;19.70;99.90;;;;;;2076397;28;20064;-71
2022/08/10 01:48:49;;;;;;;2.80;2.60;;;19.70;99.90;;;;;;2071861;28;20021;-71
2022/08/10 01:49:57;;;;;;;2.30;2.08;;;19.70;99.90;;;;;;2073923;28;20037;-71
2022/08/10 01:51:10;;;;;;;7.13;2.70;;;19.60;99.90;;;;;;2074238;28;20477;-71
2022/08/10 01:52:12;;;;;;;6.00;3.03;;;19.60;99.90;;;;;;2075974;28;20488;-71
2022/08/10 01:53:21;;;;;;;4.25;2.85;;;19.60;99.90;;;;;;2074742;28;20072;-71
2022/08/10 01:54:24;;;;;;;2.78;2.17;;;19.70;99.90;;;;;;2074983;28;20112;-71
2022/08/10 01:55:26;;;;;;;12.27;3.28;;;19.60;99.90;;;;;;2075778;28;20543;-71
2022/08/10 01:56:32;;;;;;;3.15;2.85;;;19.60;99.90;;;;;;2074674;28;20022;-71
2022/08/10 01:57:34;;;;;;;4.20;3.38;;;19.60;99.90;;;;;;2073972;28;20014;-71
2022/08/10 01:58:37;;;;;;;3.00;2.45;;;19.60;99.90;;;;;;2073070;28;20413;-71
2022/08/10 01:59:40;;;;;;;3.45;2.58;;;19.60;99.90;;;;;;2073649;28;20478;-71
2022/08/10 02:00:44;;;;;;;3.38;2.72;;;19.60;99.90;;;;;;2074288;28;20433;-71
2022/08/10 02:01:48;;;;;;;2.80;2.60;;;19.60;99.90;;;;;;2074049;28;20049;-71
2022/08/10 02:02:50;;;;;;;2.88;2.53;;;19.60;99.90;;;;;;2076250;28;20022;-71
2022/08/10 02:03:55;;;;;;;3.00;2.45;;;19.50;99.90;;;;;;2072420;28;20032;-71
2022/08/10 02:04:57;;;;;;;2.78;2.50;;;19.60;99.90;;;;;;2073897;28;20053;-71
2022/08/10 02:06:01;;;;;;;5.03;2.85;;;19.50;99.90;;;;;;2070503;28;20963;-71
2022/08/10 02:07:03;;;;;;;3.38;2.30;;;19.50;99.90;;;;;;2076168;28;20017;-71
2022/08/10 02:08:07;;;;;;;3.30;2.58;;;19.50;99.90;;;;;;2074706;28;20033;-71
2022/08/10 02:09:10;;;;;;;2.58;1.98;;;19.50;99.90;;;;;;2074467;28;20029;-71
2022/08/10 02:10:13;;;;;;;4.13;2.10;;;19.50;99.90;;;;;;2073857;28;20460;-71
2022/08/10 02:11:17;;;;;;;2.50;2.30;;;19.50;99.90;;;;;;2076912;28;20083;-71
2022/08/10 02:12:23;;;;;;;6.25;2.60;;;19.50;99.90;;;;;;2076673;28;20074;-71
2022/08/10 02:13:26;;;;;;;3.88;2.75;;;19.50;99.90;;;;;;2071951;28;20504;-71
2022/08/10 02:14:32;;;;;;;2.55;2.35;;;19.50;99.90;;;;;;2072761;28;20014;-71
2022/08/10 02:15:35;;;;;;;3.65;2.60;;;19.50;99.90;;;;;;2073643;28;20149;-71
2022/08/10 02:16:38;;;;;;;3.65;3.15;;;19.40;99.90;;;;;;2074625;28;20026;-71
2022/08/10 02:17:42;;;;;;;3.25;2.58;;;19.50;99.90;;;;;;2074131;28;20033;-71
2022/08/10 02:18:44;;;;;;;2.85;2.60;;;19.40;99.90;;;;;;2074159;28;20087;-71
2022/08/10 02:19:46;;;;;;;2.63;2.40;;;19.40;99.90;;;;;;2072543;28;20030;-71
2022/08/10 02:20:50;;;;;;;3.25;2.28;;;19.40;99.90;;;;;;2078107;28;20033;-71
2022/08/10 02:21:53;;;;;;;3.97;2.53;;;19.40;99.90;;;;;;2076999;28;20044;-71
2022/08/10 02:22:59;;;;;;;2.45;2.15;;;19.40;99.90;;;;;;2070922;28;20018;-71
2022/08/10 02:24:01;;;;;;;2.95;2.05;;;19.40;99.90;;;;;;2073316;28;20089;-71
2022/08/10 02:25:03;;;;;;;4.43;2.00;;;19.40;99.90;;;;;;2072321;28;20466;-71
2022/08/10 02:26:06;;;;;;;4.57;3.05;;;19.40;99.90;;;;;;2073757;28;20038;-71
2022/08/10 02:27:07;;;;;;;4.05;2.72;;;19.40;99.90;;;;;;2072119;28;20477;-71
2022/08/10 02:28:08;;;;;;;6.28;2.72;;;19.40;99.90;;;;;;2075326;28;20030;-71
2022/08/10 02:29:14;;;;;;;5.25;2.83;;;19.40;99.90;;;;;;2075629;28;20418;-71
2022/08/10 02:30:15;;;;;;;5.00;2.90;;;19.40;99.90;;;;;;2073631;28;20037;-71
2022/08/10 02:31:19;;;;;;;3.40;2.33;;;19.40;99.90;;;;;;2073509;28;20550;-71
2022/08/10 02:32:24;;;;;;;4.03;2.20;;;19.30;99.90;;;;;;2074624;28;20227;-71
2022/08/10 02:33:26;;;;;;;2.70;2.28;;;19.30;99.90;;;;;;2073099;28;20485;-71
2022/08/10 02:34:28;;;;;;;3.00;2.60;;;19.30;99.90;;;;;;2073721;28;20021;-71
2022/08/10 02:35:30;;;;;;;5.65;2.45;;;19.30;99.90;;;;;;2074898;28;20014;-71
2022/08/10 02:36:33;;;;;;;4.70;2.63;;;19.30;99.90;;;;;;2071777;28;20032;-71
2022/08/10 02:37:37;;;;;;;2.78;2.58;;;19.30;99.90;;;;;;2074464;28;20105;-71
2022/08/10 02:38:48;;;;;;;2.38;2.20;;;19.30;99.90;;;;;;2076142;28;20425;-71
2022/08/10 02:39:48;;;;;;;4.53;2.67;;;19.30;99.90;;;;;;2074089;28;20015;-71
2022/08/10 02:40:55;;;;;;;2.92;2.30;;;19.30;99.90;;;;;;2075615;28;20056;-71
2022/08/10 02:42:01;;;;;;;3.90;2.92;;;19.30;99.90;;;;;;2073159;28;20013;-71
2022/08/10 02:43:29;;;;;;;10.32;2.83;;;19.30;99.90;;;;;;2073771;28;20022;-71
2022/08/10 02:44:40;;;;;;;2.30;2.10;;;19.20;99.90;;;;;;2072477;28;20025;-71
2022/08/10 02:45:45;;;;;;;3.28;2.38;;;19.20;99.90;;;;;;2074510;28;20022;-71
2022/08/10 02:46:50;;;;;;;3.90;2.88;;;19.20;99.90;;;;;;2073509;28;20014;-71
2022/08/10 02:48:06;;;;;;;4.20;3.13;;;19.20;99.90;;;;;;2076040;28;20029;-71
2022/08/10 02:49:17;;;;;;;2.00;1.90;;;19.10;99.90;;;;;;2076655;28;20074;-71
2022/08/10 02:50:32;;;;;;;3.65;2.35;;;19.10;99.90;;;;;;2073427;28;20501;-71
2022/08/10 02:51:45;;;;;;;3.53;3.00;;;19.10;99.90;;;;;;2072439;28;20029;-71
2022/08/10 02:53:01;;;;;;;3.28;2.97;;;19.10;99.90;;;;;;2072068;28;20026;-71
2022/08/10 02:54:07;;;;;;;4.15;3.25;;;19.10;99.90;;;;;;2071669;28;20054;-71
2022/08/10 02:55:31;;;;;;;4.05;3.20;;;19.10;99.90;;;;;;2072850;28;20022;-71
2022/08/10 02:56:38;;;;;;;3.72;2.95;;;19.10;99.90;;;;;;2072791;28;20497;-71
2022/08/10 02:57:41;;;;;;;2.60;2.40;;;19.00;99.90;;;;;;2074759;28;20022;-71
2022/08/10 02:58:51;;;;;;;3.45;2.85;;;19.00;99.90;;;;;;2071229;28;20018;-71
2022/08/10 02:59:56;;;;;;;4.90;2.58;;;19.00;99.90;;;;;;2073228;28;20093;-71
2022/08/10 03:01:02;;;;;;;3.38;3.08;;;19.00;99.90;;;;;;2072882;28;20482;-71
2022/08/10 03:02:05;;;;;;;3.85;3.13;;;19.00;99.90;;;;;;2069080;28;20530;-71
2022/08/10 03:03:12;;;;;;;3.00;2.70;;;19.00;99.90;;;;;;2071478;28;20030;-71
2022/08/10 03:04:20;;;;;;;3.38;3.08;;;19.00;99.90;;;;;;2074921;28;20394;-71
2022/08/10 03:05:20;;;;;;;2.92;2.65;;;18.90;99.90;;;;;;2076091;28;20061;-71
2022/08/10 03:06:25;;;;;;;5.45;2.85;;;18.90;99.90;;;;;;2073164;28;20030;-71
2022/08/10 03:07:38;;;;;;;3.67;2.70;;;18.90;99.90;;;;;;2068916;28;20028;-71
2022/08/10 03:08:42;;;;;;;5.03;2.80;;;18.90;99.90;;;;;;2071987;28;20026;-71
2022/08/10 03:09:46;;;;;;;3.67;2.35;;;18.90;99.90;;;;;;2071794;28;20381;-71
2022/08/10 03:10:49;;;;;;;4.45;2.60;;;18.90;99.90;;;;;;2072057;28;20025;-71
2022/08/10 03:11:52;;;;;;;4.13;3.70;;;18.90;99.90;;;;;;2075948;28;20120;-71
2022/08/10 03:13:03;;;;;;;4.47;3.50;;;18.90;99.90;;;;;;2072410;28;20037;-71
2022/08/10 03:14:07;;;;;;;6.47;2.50;;;18.90;99.90;;;;;;2072684;28;20060;-71
2022/08/10 03:15:10;;;;;;;3.58;2.70;;;18.80;99.90;;;;;;2074225;28;20509;-71
2022/08/10 03:16:13;;;;;;;3.17;2.42;;;18.90;99.90;;;;;;2072060;28;20096;-71
2022/08/10 03:17:15;;;;;;;3.55;3.25;;;18.90;99.90;;;;;;2073719;28;20861;-71
2022/08/10 03:18:17;;;;;;;4.88;3.28;;;18.80;99.90;;;;;;2071648;28;20022;-71
2022/08/10 03:19:19;;;;;;;4.43;3.10;;;18.90;99.90;;;;;;2072866;28;20025;-71
2022/08/10 03:20:22;;;;;;;3.60;3.30;;;18.80;99.90;;;;;;2072852;28;20501;-71
2022/08/10 03:21:25;;;;;;;3.40;3.10;;;18.80;99.90;;;;;;2072621;28;20030;-71
2022/08/10 03:22:27;;;;;;;3.70;3.30;;;18.80;99.90;;;;;;2072249;28;20019;-71
2022/08/10 03:23:28;;;;;;;5.07;3.50;;;18.80;99.90;;;;;;2073970;28;20076;-71
2022/08/10 03:24:30;;;;;;;4.63;3.13;;;18.80;99.90;;;;;;2063491;28;20066;-71
2022/08/10 03:25:31;;;;;;;3.22;3.03;;;18.80;99.90;;;;;;2064055;28;20030;-71
2022/08/10 03:26:33;;;;;;;5.32;3.33;;;18.80;99.90;;;;;;2073233;28;20054;-71
2022/08/10 03:27:34;;;;;;;4.25;2.45;;;18.70;99.90;;;;;;2072416;28;20022;-71
2022/08/10 03:28:35;;;;;;;4.45;3.20;;;18.70;99.90;;;;;;2073880;28;20410;-71
2022/08/10 03:29:36;;;;;;;3.63;3.33;;;18.70;99.90;;;;;;2076397;28;20370;-71
2022/08/10 03:30:38;;;;;;;3.35;3.05;;;18.70;99.90;;;;;;2074950;28;20438;-71
2022/08/10 03:31:39;;;;;;;3.72;3.42;;;18.70;99.90;;;;;;2073792;28;20052;-71
2022/08/10 03:32:41;;;;;;;7.22;3.58;;;18.70;99.90;;;;;;2074390;28;20041;-71
2022/08/10 03:33:43;;;;;;;3.60;3.30;;;18.70;99.90;;;;;;2073706;28;20033;-71
2022/08/10 03:34:44;;;;;;;6.00;3.53;;;18.70;99.90;;;;;;2073123;28;20049;-71
2022/08/10 03:35:44;;;;;;;4.40;3.92;;;18.70;99.90;;;;;;2072487;28;20022;-71
2022/08/10 03:36:45;;;;;;;3.90;3.55;;;18.70;99.90;;;;;;2072216;28;20032;-71
2022/08/10 03:37:46;;;;;;;2.83;2.63;;;18.60;99.90;;;;;;2073662;28;20491;-71
2022/08/10 03:38:50;;;;;;;7.35;3.38;;;18.60;99.90;;;;;;2074626;28;20025;-71
2022/08/10 03:39:51;;;;;;;3.25;2.95;;;18.60;99.90;;;;;;2074092;28;20034;-71
2022/08/10 03:40:55;;;;;;;3.22;2.92;;;18.60;99.90;;;;;;2074406;28;20045;-71
2022/08/10 03:41:59;;;;;;;4.97;3.10;;;18.60;99.90;;;;;;2074795;28;20013;-71
2022/08/10 03:43:02;;;;;;;3.08;2.88;;;18.60;99.90;;;;;;2071609;28;20014;-71
2022/08/10 03:44:05;;;;;;;3.00;2.80;;;18.60;99.90;;;;;;2070129;28;20036;-71
2022/08/10 03:45:08;;;;;;;5.55;3.00;;;18.60;99.90;;;;;;2069467;28;20049;-71
2022/08/10 03:46:10;;;;;;;2.83;2.65;;;18.50;99.90;;;;;;2074007;28;20464;-71
2022/08/10 03:47:13;;;;;;;4.03;2.97;;;18.50;99.90;;;;;;2075312;28;20033;-71
2022/08/10 03:48:18;;;;;;;4.55;3.17;;;18.50;99.90;;;;;;2074715;28;20026;-71
2022/08/10 03:49:19;;;;;;;4.28;2.90;;;18.50;99.90;;;;;;2075541;28;20508;-71
2022/08/10 03:50:20;;;;;;;6.18;3.08;;;18.50;99.90;;;;;;2071850;28;20042;-71
2022/08/10 03:51:22;;;;;;;4.07;3.55;;;18.40;99.90;;;;;;2071567;28;20535;-71
2022/08/10 03:52:24;;;;;;;7.90;3.83;;;18.50;99.90;;;;;;2072389;28;20033;-71
2022/08/10 03:53:24;;;;;;;5.50;4.05;;;18.40;99.90;;;;;;2072889;28;20026;-71
2022/08/10 03:54:27;;;;;;;3.55;3.25;;;18.40;99.90;;;;;;2075070;28;20022;-71
2022/08/10 03:55:28;;;;;;;4.20;3.75;;;18.40;99.90;;;;;;2078539;28;20022;-71
2022/08/10 03:56:30;;;;;;;4.93;3.20;;;18.40;99.90;;;;;;2074838;28;20029;-71
2022/08/10 03:57:31;;;;;;;3.80;3.42;;;18.40;99.90;;;;;;2078359;28;20415;-71
2022/08/10 03:58:32;;;;;;;4.75;3.03;;;18.40;99.90;;;;;;2076056;28;20022;-71
2022/08/10 03:59:35;;;;;;;5.72;3.72;;;18.40;99.90;;;;;;2074120;28;20018;-71
2022/08/10 04:00:36;;;;;;;6.15;3.80;;;18.30;99.90;;;;;;2073537;28;20030;-71
2022/08/10 04:01:37;;;;;;;5.93;4.15;;;18.30;99.90;;;;;;2074229;28;20018;-71
2022/08/10 04:02:40;;;;;;;10.57;4.18;;;18.30;99.90;;;;;;2074868;28;20108;-71
2022/08/10 04:03:40;;;;;;;4.25;3.67;;;18.30;99.90;;;;;;2076489;28;20127;-71
2022/08/10 04:04:41;;;;;;;4.43;4.00;;;18.30;99.90;;;;;;2075644;28;20141;-71
2022/08/10 04:05:42;;;;;;;5.00;3.70;;;18.30;99.90;;;;;;2075849;28;20739;-71
2022/08/10 04:06:43;;;;;;;4.45;3.50;;;18.30;99.90;;;;;;2074700;28;20029;-71
2022/08/10 04:07:44;;;;;;;4.38;3.72;;;18.30;99.90;;;;;;2073813;28;20030;-71
2022/08/10 04:08:46;;;;;;;6.78;4.82;;;18.30;99.90;;;;;;2073841;28;20551;-71
2022/08/10 04:09:46;;;;;;;4.78;3.47;;;18.30;99.90;;;;;;2073240;28;20037;-71
2022/08/10 04:10:47;;;;;;;4.32;3.92;;;18.30;99.90;;;;;;2075815;28;20029;-71
2022/08/10 04:11:47;;;;;;;4.78;4.22;;;18.20;99.90;;;;;;2075222;28;20029;-71
2022/08/10 04:12:48;;;;;;;4.95;4.43;;;18.20;99.90;;;;;;2074183;28;20017;-71
2022/08/10 04:13:48;;;;;;;4.30;3.17;;;18.30;99.90;;;;;;2078403;28;20030;-71
2022/08/10 04:14:49;;;;;;;3.95;3.65;;;18.20;99.90;;;;;;2075653;28;20020;-71
2022/08/10 04:15:50;;;;;;;4.85;4.38;;;18.20;99.90;;;;;;2073965;28;20064;-71
2022/08/10 04:16:50;;;;;;;6.15;3.78;;;18.20;99.90;;;;;;2074890;28;20030;-71
2022/08/10 04:17:51;;;;;;;4.65;4.25;;;18.20;99.90;;;;;;2074719;28;20518;-71
2022/08/10 04:18:52;;;;;;;8.48;3.65;;;18.20;99.90;;;;;;2074312;28;20358;-71
2022/08/10 04:19:54;;;;;;;4.05;3.65;;;18.20;99.90;;;;;;2075910;28;20018;-71
2022/08/10 04:21:01;;;;;;;5.18;4.35;;;18.20;99.90;;;;;;2075351;28;20064;-71
2022/08/10 04:22:14;;;;;;;5.25;3.65;;;18.20;99.90;;;;;;2073611;28;20030;-71
2022/08/10 04:23:20;;;;;;;5.82;4.35;;;18.20;99.90;;;;;;2074566;28;20026;-71
2022/08/10 04:24:25;;;;;;;5.18;3.97;;;18.20;99.90;;;;;;2073045;28;20398;-70
2022/08/10 04:25:26;;;;;;;4.03;3.15;;;18.20;99.90;;;;;;2088262;28;20052;-71
2022/08/10 04:26:27;;;;;;;4.65;4.20;;;18.20;99.90;;;;;;2091333;28;20028;-71
2022/08/10 04:27:28;;;;;;;4.22;3.38;;;18.20;99.90;;;;;;2072527;28;20017;-71
2022/08/10 04:28:30;;;;;;;3.28;3.00;;;18.20;99.90;;;;;;2075367;28;20480;-71
2022/08/10 04:29:31;;;;;;;4.65;4.10;;;18.20;99.90;;;;;;2078794;28;20021;-71
2022/08/10 04:30:35;;;;;;;5.32;3.83;;;18.20;99.90;;;;;;2074134;28;20029;-71
2022/08/10 04:31:36;;;;;;;4.35;3.88;;;18.20;99.90;;;;;;2073042;28;20370;-71
2022/08/10 04:32:39;;;;;;;5.20;3.72;;;18.20;99.90;;;;;;2073293;28;20026;-71
2022/08/10 04:33:45;;;;;;;5.00;4.50;;;18.20;99.90;;;;;;2073796;28;20038;-71
2022/08/10 04:34:47;;;;;;;6.38;4.30;;;18.20;99.90;;;;;;2073709;28;20013;-71
2022/08/10 04:35:50;;;;;;;4.47;4.18;;;18.20;99.90;;;;;;2075238;28;20037;-71
2022/08/10 04:36:54;;;;;;;4.85;4.38;;;18.20;99.90;;;;;;2072462;28;20044;-71
2022/08/10 04:37:57;;;;;;;4.85;4.38;;;18.20;99.90;;;;;;2076418;28;20020;-71
2022/08/10 04:38:58;;;;;;;4.50;3.33;;;18.20;99.90;;;;;;2076568;28;20018;-71
2022/08/10 04:39:59;;;;;;;4.32;3.92;;;18.20;99.90;;;;;;2073861;28;20025;-71
2022/08/10 04:41:00;;;;;;;4.05;3.75;;;18.20;99.90;;;;;;2073331;28;20022;-71
2022/08/10 04:42:01;;;;;;;5.18;3.92;;;18.20;99.90;;;;;;2074710;28;20531;-70
2022/08/10 04:43:04;;;;;;;5.82;4.13;;;18.20;99.90;;;;;;2075227;28;20092;-70
2022/08/10 04:44:05;;;;;;;4.57;3.75;;;18.20;99.90;;;;;;2074260;28;20486;-70
2022/08/10 04:45:10;;;;;;;5.10;4.60;;;18.20;99.90;;;;;;2075301;28;20378;-71
2022/08/10 04:46:11;;;;;;;5.05;3.58;;;18.20;99.90;;;;;;2075601;28;20040;-71
2022/08/10 04:47:11;;;;;;;6.15;4.32;;;18.20;99.90;;;;;;2075265;28;20049;-71
2022/08/10 04:48:12;;;;;;;4.97;4.57;;;18.20;99.90;;;;;;2073530;28;20079;-71
2022/08/10 04:49:13;;;;;;;5.65;4.28;;;18.20;99.90;;;;;;2073905;28;20034;-71
2022/08/10 04:50:13;;;;;;;7.90;4.07;;;18.20;99.90;;;;;;2073646;28;20033;-71
2022/08/10 04:51:16;;;;;;;8.52;4.97;;;18.20;99.90;;;;;;2075522;28;20032;-71
2022/08/10 04:52:17;;;;;;;4.57;4.18;;;18.30;99.90;;;;;;2074980;28;20064;-71
2022/08/10 04:53:17;;;;;;;4.55;3.30;;;18.20;99.90;;;;;;2074777;28;20018;-71
2022/08/10 04:54:18;;;;;;;5.18;3.70;;;18.20;99.90;;;;;;2076124;28;20033;-71
2022/08/10 04:55:19;;;;;;;4.05;3.75;;;18.20;99.90;;;;;;2077363;28;20021;-71
2022/08/10 04:56:19;;;;;;;5.32;4.50;;;18.30;99.90;;;;;;2073611;28;20030;-71
2022/08/10 04:57:20;;;;;;;4.47;4.07;;;18.30;99.90;;;;;;2073877;28;20050;-71
2022/08/10 04:58:20;;;;;;;4.07;3.78;;;18.30;99.90;;;;;;2074461;28;20123;-71
2022/08/10 04:59:21;;;;;;;5.70;4.53;;;18.30;99.90;;;;;;2073617;28;20068;-71
2022/08/10 05:00:22;;;;;;;7.88;4.97;;;18.30;99.90;;;;;;2078963;28;20053;-71
2022/08/10 05:01:23;;;;;;;5.93;5.13;;;18.30;99.90;;;;;;2073019;28;20482;-71
2022/08/10 05:02:23;;;;;;;4.15;3.70;;;18.30;99.90;;;;;;2075380;28;20027;-70
2022/08/10 05:03:24;;;;;;;5.63;4.47;;;18.30;99.90;;;;;;2073434;28;20070;-70
2022/08/10 05:04:24;;;;;;;6.93;4.20;;;18.30;99.90;;;;;;2076471;28;20022;-70
2022/08/10 05:05:25;;;;;;;4.45;4.05;;;18.30;99.90;;;;;;2075627;28;20462;-71
2022/08/10 05:06:25;;;;;;;5.38;4.60;;;18.30;99.90;;;;;;2074679;28;20037;-71
2022/08/10 05:07:26;;;;;;;4.22;3.83;;;18.30;99.90;;;;;;2075139;28;20022;-71
2022/08/10 05:08:27;;;;;;;4.80;4.30;;;18.30;99.90;;;;;;2075673;28;20026;-71
2022/08/10 05:09:27;;;;;;;5.05;4.38;;;18.40;99.90;;;;;;2075370;28;20022;-71
2022/08/10 05:10:28;;;;;;;4.20;3.83;;;18.40;99.90;;;;;;2074368;28;20028;-71
2022/08/10 05:11:28;;;;;;;5.57;3.20;;;18.40;99.90;;;;;;2076791;28;20045;-71
2022/08/10 05:12:30;;;;;;;4.68;4.22;;;18.40;99.90;;;;;;2074332;28;20089;-71
2022/08/10 05:13:31;;;;;;;9.93;4.97;;;18.40;99.90;;;;;;2076163;28;20808;-71
2022/08/10 05:14:31;;;;;;;5.13;4.72;;;18.40;99.90;;;;;;2073329;28;20022;-70
2022/08/10 05:15:32;;;;;;;7.90;3.92;;;18.40;99.90;;;;;;2075813;28;20015;-71
2022/08/10 05:16:32;;;;;;;4.18;3.78;;;18.40;99.90;;;;;;2074087;28;20014;-71
2022/08/10 05:17:34;;;;;;;8.55;4.47;;;18.50;99.90;;;;;;2075089;28;20022;-71
2022/08/10 05:18:35;;;;;;;5.63;4.63;;;18.50;99.90;;;;;;2075859;28;20462;-71
2022/08/10 05:19:36;;;;;;;9.00;4.85;;;18.50;99.90;;;;;;2076153;28;20677;-71
2022/08/10 05:20:37;;;;;;;5.03;4.53;;;18.50;99.90;;;;;;2073498;28;20641;-71
2022/08/10 05:21:38;;;;;;;7.30;4.07;;;18.50;99.90;;;;;;2072928;28;20029;-71
2022/08/10 05:22:40;;;;;;;6.80;4.40;;;18.60;99.90;;;;;;2074058;28;20022;-70
2022/08/10 05:23:41;;;;;;;5.82;4.43;;;18.60;99.90;;;;;;2074719;28;20037;-71
2022/08/10 05:24:41;;;;;;;4.65;3.80;;;18.60;99.90;;;;;;2072799;28;20025;-71
2022/08/10 05:25:42;;;;;;;6.40;3.92;;;18.60;99.90;;;;;;2073172;28;20057;-71
2022/08/10 05:26:43;;;;;;;6.00;4.10;;;18.70;99.90;;;;;;2077740;28;20481;-71
2022/08/10 05:27:44;;;;;;;4.18;3.80;;;18.70;99.90;;;;;;2072982;28;20034;-71
2022/08/10 05:28:45;;;;;;;6.72;3.97;;;18.80;99.90;;;;;;2073438;28;20029;-71
2022/08/10 05:29:46;;;;;;;4.75;4.25;;;18.80;99.90;;;;;;2078531;28;20025;-71
2022/08/10 05:30:46;;;;;;;7.68;4.25;;;18.90;99.90;;;;;;2073125;28;20490;-71
2022/08/10 05:31:48;;;;;;;5.90;3.78;;;18.90;99.90;;;;;;2076896;28;20030;-71
2022/08/10 05:32:49;;;;;;;4.70;3.97;;;19.00;99.90;;;;;;2075014;28;20025;-71
2022/08/10 05:33:50;;;;;;;4.32;3.75;;;19.10;99.90;;;;;;2071842;28;20049;-71
2022/08/10 05:34:50;;;;;;;5.43;4.10;;;19.20;99.90;;;;;;2075838;28;20478;-71